sensor_id;sensor_type;location;lat;lon;timestamp;P1;durP1;ratioP1;P2;durP2;ratioP2
18651;SDS011;9455;54.302;10.124;2024-03-23T00:55:07;21.03;;;3.60;;
18651;SDS011;9455;54.302;10.124;2024-03-23T00:57:33;16.67;;;2.97;;
18651;SDS011;9455;54.302;10.124;2024-03-23T00:59:59;20.03;;;2.57;;
18651;SDS011;9455;54.302;10.124;2024-03-23T01:02:25;25.43;;;3.73;;
18651;SDS011;9455;54.302;10.124;2024-03-23T01:04:52;21.97;;;3.50;;
18651;SDS011;9455;54.302;10.124;2024-03-23T01:07:17;19.67;;;2.43;;
18651;SDS011;9455;54.302;10.124;2024-03-23T01:09:44;16.80;;;2.47;;
18651;SDS011;9455;54.302;10.124;2024-03-23T01:12:11;25.90;;;3.37;;
18651;SDS011;9455;54.302;10.124;2024-03-23T01:14:38;15.67;;;3.50;;
18651;SDS011;9455;54.302;10.124;2024-03-23T01:17:03;20.37;;;2.60;;
18651;SDS011;9455;54.302;10.124;2024-03-23T01:19:30;20.87;;;2.80;;
18651;SDS011;9455;54.302;10.124;2024-03-23T01:21:55;27.40;;;3.40;;
18651;SDS011;9455;54.302;10.124;2024-03-23T01:24:22;18.40;;;2.93;;
18651;SDS011;9455;54.302;10.124;2024-03-23T01:26:48;19.17;;;3.07;;
18651;SDS011;9455;54.302;10.124;2024-03-23T01:29:16;25.93;;;2.83;;
18651;SDS011;9455;54.302;10.124;2024-03-23T01:31:41;16.63;;;2.70;;
18651;SDS011;9455;54.302;10.124;2024-03-23T01:34:08;10.40;;;3.07;;
18651;SDS011;9455;54.302;10.124;2024-03-23T01:36:34;17.60;;;2.73;;
18651;SDS011;9455;54.302;10.124;2024-03-23T01:39:00;30.50;;;3.07;;
18651;SDS011;9455;54.302;10.124;2024-03-23T01:41:26;14.17;;;3.07;;
18651;SDS011;9455;54.302;10.124;2024-03-23T01:43:53;16.97;;;3.60;;
18651;SDS011;9455;54.302;10.124;2024-03-23T01:46:22;25.77;;;3.10;;
18651;SDS011;9455;54.302;10.124;2024-03-23T01:48:48;23.30;;;3.03;;
18651;SDS011;9455;54.302;10.124;2024-03-23T01:51:15;21.60;;;3.07;;
18651;SDS011;9455;54.302;10.124;2024-03-23T01:53:42;24.93;;;4.03;;
18651;SDS011;9455;54.302;10.124;2024-03-23T01:56:07;19.40;;;3.47;;
18651;SDS011;9455;54.302;10.124;2024-03-23T01:58:34;32.57;;;3.77;;
18651;SDS011;9455;54.302;10.124;2024-03-23T02:01:00;21.17;;;3.07;;
18651;SDS011;9455;54.302;10.124;2024-03-23T02:03:28;24.73;;;3.67;;
18651;SDS011;9455;54.302;10.124;2024-03-23T02:05:54;25.57;;;3.70;;
18651;SDS011;9455;54.302;10.124;2024-03-23T02:08:21;13.77;;;2.47;;
18651;SDS011;9455;54.302;10.124;2024-03-23T02:10:48;13.57;;;2.37;;
18651;SDS011;9455;54.302;10.124;2024-03-23T02:13:15;16.07;;;2.97;;
18651;SDS011;9455;54.302;10.124;2024-03-23T02:15:42;25.03;;;2.70;;
18651;SDS011;9455;54.302;10.124;2024-03-23T02:18:09;21.03;;;2.73;;
18651;SDS011;9455;54.302;10.124;2024-03-23T02:20:37;16.80;;;3.27;;
18651;SDS011;9455;54.302;10.124;2024-03-23T02:23:05;16.70;;;2.20;;
18651;SDS011;9455;54.302;10.124;2024-03-23T02:25:31;17.90;;;2.43;;
18651;SDS011;9455;54.302;10.124;2024-03-23T02:27:58;25.50;;;3.60;;
18651;SDS011;9455;54.302;10.124;2024-03-23T02:30:24;18.30;;;2.67;;
18651;SDS011;9455;54.302;10.124;2024-03-23T02:32:51;11.33;;;2.57;;
18651;SDS011;9455;54.302;10.124;2024-03-23T02:35:17;17.07;;;2.47;;
18651;SDS011;9455;54.302;10.124;2024-03-23T02:37:43;24.23;;;3.50;;
18651;SDS011;9455;54.302;10.124;2024-03-23T02:40:13;22.63;;;3.10;;
18651;SDS011;9455;54.302;10.124;2024-03-23T02:42:39;19.13;;;2.70;;
18651;SDS011;9455;54.302;10.124;2024-03-23T02:45:05;15.23;;;3.37;;
18651;SDS011;9455;54.302;10.124;2024-03-23T02:47:32;18.20;;;2.43;;
18651;SDS011;9455;54.302;10.124;2024-03-23T02:49:58;17.20;;;2.83;;
18651;SDS011;9455;54.302;10.124;2024-03-23T02:52:25;16.03;;;2.27;;
18651;SDS011;9455;54.302;10.124;2024-03-23T02:54:50;17.47;;;2.97;;
18651;SDS011;9455;54.302;10.124;2024-03-23T02:57:19;16.27;;;3.30;;
18651;SDS011;9455;54.302;10.124;2024-03-23T02:59:44;11.27;;;2.27;;
18651;SDS011;9455;54.302;10.124;2024-03-23T03:02:11;18.80;;;3.53;;
18651;SDS011;9455;54.302;10.124;2024-03-23T03:04:38;19.43;;;3.43;;
18651;SDS011;9455;54.302;10.124;2024-03-23T03:07:05;14.20;;;3.27;;
18651;SDS011;9455;54.302;10.124;2024-03-23T03:09:31;19.70;;;2.57;;
18651;SDS011;9455;54.302;10.124;2024-03-23T03:11:58;13.17;;;2.23;;
18651;SDS011;9455;54.302;10.124;2024-03-23T03:14:25;13.57;;;2.30;;
18651;SDS011;9455;54.302;10.124;2024-03-23T03:16:51;12.13;;;2.30;;
18651;SDS011;9455;54.302;10.124;2024-03-23T03:19:17;17.63;;;1.80;;
18651;SDS011;9455;54.302;10.124;2024-03-23T03:21:43;23.67;;;2.80;;
18651;SDS011;9455;54.302;10.124;2024-03-23T03:24:09;14.03;;;2.40;;
18651;SDS011;9455;54.302;10.124;2024-03-23T03:26:36;16.87;;;2.60;;
18651;SDS011;9455;54.302;10.124;2024-03-23T03:29:02;8.50;;;2.37;;
18651;SDS011;9455;54.302;10.124;2024-03-23T03:31:30;13.23;;;2.07;;
18651;SDS011;9455;54.302;10.124;2024-03-23T03:33:56;16.67;;;3.37;;
18651;SDS011;9455;54.302;10.124;2024-03-23T03:36:22;20.80;;;2.57;;
18651;SDS011;9455;54.302;10.124;2024-03-23T03:38:48;12.03;;;1.97;;
18651;SDS011;9455;54.302;10.124;2024-03-23T03:41:15;15.53;;;2.87;;
18651;SDS011;9455;54.302;10.124;2024-03-23T03:43:41;21.60;;;3.17;;
18651;SDS011;9455;54.302;10.124;2024-03-23T03:46:07;12.90;;;3.00;;
18651;SDS011;9455;54.302;10.124;2024-03-23T03:48:34;29.10;;;2.73;;
18651;SDS011;9455;54.302;10.124;2024-03-23T03:51:01;5.83;;;1.80;;
18651;SDS011;9455;54.302;10.124;2024-03-23T03:53:27;10.23;;;2.20;;
18651;SDS011;9455;54.302;10.124;2024-03-23T03:55:53;13.67;;;2.77;;
18651;SDS011;9455;54.302;10.124;2024-03-23T03:58:19;20.87;;;2.90;;
18651;SDS011;9455;54.302;10.124;2024-03-23T04:00:46;19.83;;;2.83;;
18651;SDS011;9455;54.302;10.124;2024-03-23T04:03:11;6.93;;;2.60;;
18651;SDS011;9455;54.302;10.124;2024-03-23T04:05:39;19.97;;;2.93;;
18651;SDS011;9455;54.302;10.124;2024-03-23T04:08:05;21.53;;;2.67;;
18651;SDS011;9455;54.302;10.124;2024-03-23T04:10:33;13.27;;;2.17;;
18651;SDS011;9455;54.302;10.124;2024-03-23T04:12:59;15.57;;;2.83;;
18651;SDS011;9455;54.302;10.124;2024-03-23T04:15:29;11.50;;;2.20;;
18651;SDS011;9455;54.302;10.124;2024-03-23T04:17:55;8.90;;;2.77;;
18651;SDS011;9455;54.302;10.124;2024-03-23T04:20:21;21.57;;;2.60;;
18651;SDS011;9455;54.302;10.124;2024-03-23T04:22:48;18.77;;;2.20;;
18651;SDS011;9455;54.302;10.124;2024-03-23T04:25:15;13.77;;;2.20;;
18651;SDS011;9455;54.302;10.124;2024-03-23T04:27:40;20.00;;;2.77;;
18651;SDS011;9455;54.302;10.124;2024-03-23T04:30:07;22.40;;;2.60;;
18651;SDS011;9455;54.302;10.124;2024-03-23T04:32:36;12.13;;;2.03;;
18651;SDS011;9455;54.302;10.124;2024-03-23T04:35:02;11.53;;;2.10;;
18651;SDS011;9455;54.302;10.124;2024-03-23T04:37:31;7.77;;;2.10;;
18651;SDS011;9455;54.302;10.124;2024-03-23T04:39:59;19.07;;;2.57;;
18651;SDS011;9455;54.302;10.124;2024-03-23T04:42:25;14.63;;;2.87;;
18651;SDS011;9455;54.302;10.124;2024-03-23T04:44:52;21.63;;;2.60;;
18651;SDS011;9455;54.302;10.124;2024-03-23T04:47:19;19.90;;;2.00;;
18651;SDS011;9455;54.302;10.124;2024-03-23T04:49:46;16.60;;;3.00;;
18651;SDS011;9455;54.302;10.124;2024-03-23T04:52:12;11.90;;;2.73;;
18651;SDS011;9455;54.302;10.124;2024-03-23T04:54:39;21.47;;;3.43;;
18651;SDS011;9455;54.302;10.124;2024-03-23T04:57:07;27.27;;;4.37;;
18651;SDS011;9455;54.302;10.124;2024-03-23T04:59:33;17.03;;;3.80;;
18651;SDS011;9455;54.302;10.124;2024-03-23T05:02:00;21.17;;;4.40;;
18651;SDS011;9455;54.302;10.124;2024-03-23T05:04:25;18.73;;;4.80;;
18651;SDS011;9455;54.302;10.124;2024-03-23T05:06:52;17.37;;;3.33;;
18651;SDS011;9455;54.302;10.124;2024-03-23T05:09:18;17.73;;;3.43;;
18651;SDS011;9455;54.302;10.124;2024-03-23T05:11:45;14.63;;;3.20;;
18651;SDS011;9455;54.302;10.124;2024-03-23T05:14:12;18.57;;;3.77;;
18651;SDS011;9455;54.302;10.124;2024-03-23T05:16:39;17.87;;;3.40;;
18651;SDS011;9455;54.302;10.124;2024-03-23T05:19:05;22.00;;;4.10;;
18651;SDS011;9455;54.302;10.124;2024-03-23T05:21:32;17.70;;;3.90;;
18651;SDS011;9455;54.302;10.124;2024-03-23T05:23:58;14.50;;;3.40;;
18651;SDS011;9455;54.302;10.124;2024-03-23T05:26:24;18.80;;;4.10;;
18651;SDS011;9455;54.302;10.124;2024-03-23T05:28:50;16.97;;;4.20;;
18651;SDS011;9455;54.302;10.124;2024-03-23T05:31:23;20.70;;;3.87;;
18651;SDS011;9455;54.302;10.124;2024-03-23T05:33:49;30.73;;;4.20;;
18651;SDS011;9455;54.302;10.124;2024-03-23T05:36:16;14.17;;;4.13;;
18651;SDS011;9455;54.302;10.124;2024-03-23T05:38:42;15.00;;;3.57;;
18651;SDS011;9455;54.302;10.124;2024-03-23T05:41:09;24.77;;;4.40;;
18651;SDS011;9455;54.302;10.124;2024-03-23T05:43:35;13.97;;;4.50;;
18651;SDS011;9455;54.302;10.124;2024-03-23T05:46:01;11.63;;;3.90;;
18651;SDS011;9455;54.302;10.124;2024-03-23T05:48:29;24.87;;;5.90;;
18651;SDS011;9455;54.302;10.124;2024-03-23T05:50:56;14.70;;;4.13;;
18651;SDS011;9455;54.302;10.124;2024-03-23T05:53:22;20.47;;;3.90;;
18651;SDS011;9455;54.302;10.124;2024-03-23T05:55:50;16.90;;;4.43;;
18651;SDS011;9455;54.302;10.124;2024-03-23T05:58:16;15.30;;;3.70;;
18651;SDS011;9455;54.302;10.124;2024-03-23T06:00:45;26.43;;;4.90;;
18651;SDS011;9455;54.302;10.124;2024-03-23T06:03:11;24.93;;;4.07;;
18651;SDS011;9455;54.302;10.124;2024-03-23T06:05:40;30.53;;;5.40;;
18651;SDS011;9455;54.302;10.124;2024-03-23T06:08:07;18.77;;;4.00;;
18651;SDS011;9455;54.302;10.124;2024-03-23T06:10:35;16.83;;;3.83;;
18651;SDS011;9455;54.302;10.124;2024-03-23T06:13:00;23.63;;;4.50;;
18651;SDS011;9455;54.302;10.124;2024-03-23T06:15:27;20.43;;;4.10;;
18651;SDS011;9455;54.302;10.124;2024-03-23T06:17:52;26.63;;;4.20;;
18651;SDS011;9455;54.302;10.124;2024-03-23T06:20:19;24.43;;;4.57;;
18651;SDS011;9455;54.302;10.124;2024-03-23T06:22:46;21.03;;;3.50;;
18651;SDS011;9455;54.302;10.124;2024-03-23T06:25:13;28.47;;;4.87;;
18651;SDS011;9455;54.302;10.124;2024-03-23T06:27:39;33.50;;;3.70;;
18651;SDS011;9455;54.302;10.124;2024-03-23T06:30:06;28.00;;;3.97;;
18651;SDS011;9455;54.302;10.124;2024-03-23T06:32:32;36.87;;;6.10;;
18651;SDS011;9455;54.302;10.124;2024-03-23T06:34:59;22.93;;;4.17;;
18651;SDS011;9455;54.302;10.124;2024-03-23T06:37:25;46.10;;;4.60;;
18651;SDS011;9455;54.302;10.124;2024-03-23T06:39:55;47.47;;;5.77;;
18651;SDS011;9455;54.302;10.124;2024-03-23T06:42:20;45.33;;;5.23;;
18651;SDS011;9455;54.302;10.124;2024-03-23T06:44:47;19.00;;;3.70;;
18651;SDS011;9455;54.302;10.124;2024-03-23T06:47:12;27.00;;;4.97;;
18651;SDS011;9455;54.302;10.124;2024-03-23T06:49:39;65.53;;;6.50;;
18651;SDS011;9455;54.302;10.124;2024-03-23T06:52:05;31.27;;;4.43;;
18651;SDS011;9455;54.302;10.124;2024-03-23T06:54:32;24.23;;;5.17;;
18651;SDS011;9455;54.302;10.124;2024-03-23T06:56:59;29.50;;;4.60;;
18651;SDS011;9455;54.302;10.124;2024-03-23T06:59:25;36.00;;;5.13;;
18651;SDS011;9455;54.302;10.124;2024-03-23T07:01:51;13.87;;;3.87;;
18651;SDS011;9455;54.302;10.124;2024-03-23T07:04:17;23.23;;;4.33;;
18651;SDS011;9455;54.302;10.124;2024-03-23T07:06:43;27.30;;;4.67;;
18651;SDS011;9455;54.302;10.124;2024-03-23T07:09:10;22.07;;;4.20;;
18651;SDS011;9455;54.302;10.124;2024-03-23T07:11:36;25.10;;;4.33;;
18651;SDS011;9455;54.302;10.124;2024-03-23T07:14:05;32.60;;;4.20;;
18651;SDS011;9455;54.302;10.124;2024-03-23T07:16:30;31.40;;;5.27;;
18651;SDS011;9455;54.302;10.124;2024-03-23T07:18:57;41.67;;;5.37;;
18651;SDS011;9455;54.302;10.124;2024-03-23T07:21:23;25.20;;;4.53;;
18651;SDS011;9455;54.302;10.124;2024-03-23T07:23:50;18.40;;;3.97;;
18651;SDS011;9455;54.302;10.124;2024-03-23T07:26:16;39.03;;;6.17;;
18651;SDS011;9455;54.302;10.124;2024-03-23T07:28:43;28.33;;;5.30;;
18651;SDS011;9455;54.302;10.124;2024-03-23T07:31:13;28.40;;;5.20;;
18651;SDS011;9455;54.302;10.124;2024-03-23T07:33:43;17.97;;;3.80;;
18651;SDS011;9455;54.302;10.124;2024-03-23T07:36:10;13.93;;;4.73;;
18651;SDS011;9455;54.302;10.124;2024-03-23T07:38:36;24.00;;;5.10;;
18651;SDS011;9455;54.302;10.124;2024-03-23T07:41:03;24.27;;;4.57;;
18651;SDS011;9455;54.302;10.124;2024-03-23T07:43:30;37.17;;;5.40;;
18651;SDS011;9455;54.302;10.124;2024-03-23T07:45:56;47.23;;;5.77;;
18651;SDS011;9455;54.302;10.124;2024-03-23T07:48:24;41.03;;;4.80;;
18651;SDS011;9455;54.302;10.124;2024-03-23T07:51:00;23.17;;;4.67;;
18651;SDS011;9455;54.302;10.124;2024-03-23T07:53:27;24.93;;;4.93;;
18651;SDS011;9455;54.302;10.124;2024-03-23T07:55:56;27.97;;;5.57;;
18651;SDS011;9455;54.302;10.124;2024-03-23T07:58:23;23.83;;;5.53;;
18651;SDS011;9455;54.302;10.124;2024-03-23T08:00:49;27.07;;;4.20;;
18651;SDS011;9455;54.302;10.124;2024-03-23T08:03:16;31.13;;;6.60;;
18651;SDS011;9455;54.302;10.124;2024-03-23T08:05:43;29.60;;;5.53;;
18651;SDS011;9455;54.302;10.124;2024-03-23T08:08:09;25.63;;;5.80;;
18651;SDS011;9455;54.302;10.124;2024-03-23T08:10:36;17.00;;;5.27;;
18651;SDS011;9455;54.302;10.124;2024-03-23T08:13:02;23.20;;;5.17;;
18651;SDS011;9455;54.302;10.124;2024-03-23T08:15:29;24.90;;;4.83;;
18651;SDS011;9455;54.302;10.124;2024-03-23T08:17:57;25.63;;;5.37;;
18651;SDS011;9455;54.302;10.124;2024-03-23T08:20:23;15.83;;;4.53;;
18651;SDS011;9455;54.302;10.124;2024-03-23T08:22:51;24.67;;;5.77;;
18651;SDS011;9455;54.302;10.124;2024-03-23T08:25:17;18.60;;;5.00;;
18651;SDS011;9455;54.302;10.124;2024-03-23T08:27:44;29.63;;;4.90;;
18651;SDS011;9455;54.302;10.124;2024-03-23T08:30:10;26.80;;;5.03;;
18651;SDS011;9455;54.302;10.124;2024-03-23T08:32:37;18.40;;;4.53;;
18651;SDS011;9455;54.302;10.124;2024-03-23T08:35:03;38.60;;;5.07;;
18651;SDS011;9455;54.302;10.124;2024-03-23T08:37:30;18.47;;;4.40;;
18651;SDS011;9455;54.302;10.124;2024-03-23T08:39:57;19.23;;;4.73;;
18651;SDS011;9455;54.302;10.124;2024-03-23T08:42:23;17.57;;;4.70;;
18651;SDS011;9455;54.302;10.124;2024-03-23T08:44:49;14.73;;;4.73;;
18651;SDS011;9455;54.302;10.124;2024-03-23T08:47:16;12.70;;;5.00;;
18651;SDS011;9455;54.302;10.124;2024-03-23T08:49:41;11.70;;;4.23;;
18651;SDS011;9455;54.302;10.124;2024-03-23T08:52:08;16.07;;;4.53;;
18651;SDS011;9455;54.302;10.124;2024-03-23T08:54:34;19.13;;;4.87;;
18651;SDS011;9455;54.302;10.124;2024-03-23T08:57:02;18.27;;;4.03;;
18651;SDS011;9455;54.302;10.124;2024-03-23T08:59:28;20.13;;;4.50;;
18651;SDS011;9455;54.302;10.124;2024-03-23T09:01:54;18.47;;;4.03;;
18651;SDS011;9455;54.302;10.124;2024-03-23T09:04:20;12.20;;;2.77;;
18651;SDS011;9455;54.302;10.124;2024-03-23T09:06:47;20.17;;;3.20;;
18651;SDS011;9455;54.302;10.124;2024-03-23T09:09:12;22.97;;;2.63;;
18651;SDS011;9455;54.302;10.124;2024-03-23T09:11:39;13.63;;;2.97;;
18651;SDS011;9455;54.302;10.124;2024-03-23T09:14:06;16.23;;;2.90;;
18651;SDS011;9455;54.302;10.124;2024-03-23T09:16:34;16.80;;;2.80;;
18651;SDS011;9455;54.302;10.124;2024-03-23T09:19:00;24.97;;;3.33;;
18651;SDS011;9455;54.302;10.124;2024-03-23T09:21:26;15.73;;;2.20;;
18651;SDS011;9455;54.302;10.124;2024-03-23T09:23:52;6.60;;;1.90;;
18651;SDS011;9455;54.302;10.124;2024-03-23T09:26:19;7.43;;;1.07;;
18651;SDS011;9455;54.302;10.124;2024-03-23T09:28:44;2.10;;;0.97;;
18651;SDS011;9455;54.302;10.124;2024-03-23T09:31:15;6.30;;;0.97;;
18651;SDS011;9455;54.302;10.124;2024-03-23T09:33:41;4.03;;;1.07;;
18651;SDS011;9455;54.302;10.124;2024-03-23T09:36:08;7.37;;;1.90;;
18651;SDS011;9455;54.302;10.124;2024-03-23T09:38:34;8.40;;;2.07;;
18651;SDS011;9455;54.302;10.124;2024-03-23T09:41:06;9.40;;;1.90;;
18651;SDS011;9455;54.302;10.124;2024-03-23T09:43:32;6.63;;;1.60;;
18651;SDS011;9455;54.302;10.124;2024-03-23T09:45:59;11.53;;;2.17;;
18651;SDS011;9455;54.302;10.124;2024-03-23T09:48:27;11.87;;;2.03;;
18651;SDS011;9455;54.302;10.124;2024-03-23T09:50:54;10.53;;;1.77;;
18651;SDS011;9455;54.302;10.124;2024-03-23T09:53:20;29.30;;;3.37;;
18651;SDS011;9455;54.302;10.124;2024-03-23T09:55:47;9.40;;;1.37;;
18651;SDS011;9455;54.302;10.124;2024-03-23T09:58:13;28.03;;;3.47;;
18651;SDS011;9455;54.302;10.124;2024-03-23T10:00:41;17.77;;;1.90;;
18651;SDS011;9455;54.302;10.124;2024-03-23T10:03:07;8.60;;;1.90;;
18651;SDS011;9455;54.302;10.124;2024-03-23T10:05:37;4.23;;;1.13;;
18651;SDS011;9455;54.302;10.124;2024-03-23T10:08:16;1.70;;;1.00;;
18651;SDS011;9455;54.302;10.124;2024-03-23T10:10:44;14.27;;;1.37;;
18651;SDS011;9455;54.302;10.124;2024-03-23T10:13:10;12.70;;;1.97;;
18651;SDS011;9455;54.302;10.124;2024-03-23T10:15:38;12.07;;;1.23;;
18651;SDS011;9455;54.302;10.124;2024-03-23T10:18:04;7.50;;;2.03;;
18651;SDS011;9455;54.302;10.124;2024-03-23T10:20:46;7.20;;;1.20;;
18651;SDS011;9455;54.302;10.124;2024-03-23T10:23:15;6.93;;;0.87;;
18651;SDS011;9455;54.302;10.124;2024-03-23T10:25:42;5.23;;;2.60;;
18651;SDS011;9455;54.302;10.124;2024-03-23T10:28:08;7.90;;;1.30;;
18651;SDS011;9455;54.302;10.124;2024-03-23T10:30:36;5.53;;;1.23;;
18651;SDS011;9455;54.302;10.124;2024-03-23T10:33:08;13.93;;;1.73;;
18651;SDS011;9455;54.302;10.124;2024-03-23T10:35:36;22.30;;;2.57;;
18651;SDS011;9455;54.302;10.124;2024-03-23T10:38:04;3.70;;;1.83;;
18651;SDS011;9455;54.302;10.124;2024-03-23T10:40:33;9.63;;;1.60;;
18651;SDS011;9455;54.302;10.124;2024-03-23T10:43:00;11.67;;;1.53;;
18651;SDS011;9455;54.302;10.124;2024-03-23T10:45:27;11.20;;;1.63;;
18651;SDS011;9455;54.302;10.124;2024-03-23T10:47:52;4.47;;;1.33;;
18651;SDS011;9455;54.302;10.124;2024-03-23T10:50:19;8.67;;;1.30;;
18651;SDS011;9455;54.302;10.124;2024-03-23T10:52:46;12.77;;;2.33;;
18651;SDS011;9455;54.302;10.124;2024-03-23T10:55:15;7.43;;;1.53;;
18651;SDS011;9455;54.302;10.124;2024-03-23T10:57:44;13.53;;;2.43;;
18651;SDS011;9455;54.302;10.124;2024-03-23T11:00:14;3.73;;;1.60;;
18651;SDS011;9455;54.302;10.124;2024-03-23T11:02:41;9.87;;;1.80;;
18651;SDS011;9455;54.302;10.124;2024-03-23T11:07:54;9.50;;;1.97;;
18651;SDS011;9455;54.302;10.124;2024-03-23T11:10:26;11.00;;;1.60;;
18651;SDS011;9455;54.302;10.124;2024-03-23T11:12:54;11.67;;;2.17;;
18651;SDS011;9455;54.302;10.124;2024-03-23T11:15:21;11.47;;;1.53;;
18651;SDS011;9455;54.302;10.124;2024-03-23T11:20:31;8.10;;;1.53;;
18651;SDS011;9455;54.302;10.124;2024-03-23T11:22:57;6.47;;;1.50;;
18651;SDS011;9455;54.302;10.124;2024-03-23T11:25:25;6.43;;;1.37;;
18651;SDS011;9455;54.302;10.124;2024-03-23T11:27:52;6.47;;;0.97;;
18651;SDS011;9455;54.302;10.124;2024-03-23T11:30:20;13.83;;;1.57;;
18651;SDS011;9455;54.302;10.124;2024-03-23T11:32:47;13.47;;;2.10;;
18651;SDS011;9455;54.302;10.124;2024-03-23T11:35:27;9.03;;;1.67;;
18651;SDS011;9455;54.302;10.124;2024-03-23T11:38:06;8.77;;;1.63;;
18651;SDS011;9455;54.302;10.124;2024-03-23T11:40:35;5.87;;;1.53;;
18651;SDS011;9455;54.302;10.124;2024-03-23T11:43:02;20.40;;;1.70;;
18651;SDS011;9455;54.302;10.124;2024-03-23T11:45:33;2.83;;;0.80;;
18651;SDS011;9455;54.302;10.124;2024-03-23T11:48:06;5.60;;;0.70;;
18651;SDS011;9455;54.302;10.124;2024-03-23T11:50:36;3.63;;;0.90;;
18651;SDS011;9455;54.302;10.124;2024-03-23T11:53:11;3.30;;;0.50;;
18651;SDS011;9455;54.302;10.124;2024-03-23T11:55:41;5.37;;;0.93;;
18651;SDS011;9455;54.302;10.124;2024-03-23T11:58:07;7.97;;;0.80;;
18651;SDS011;9455;54.302;10.124;2024-03-23T12:00:34;3.80;;;1.17;;
18651;SDS011;9455;54.302;10.124;2024-03-23T12:03:00;8.63;;;0.93;;
18651;SDS011;9455;54.302;10.124;2024-03-23T12:05:27;4.73;;;1.43;;
18651;SDS011;9455;54.302;10.124;2024-03-23T12:07:53;5.17;;;1.23;;
18651;SDS011;9455;54.302;10.124;2024-03-23T12:10:19;13.53;;;1.53;;
18651;SDS011;9455;54.302;10.124;2024-03-23T12:12:51;10.07;;;1.37;;
18651;SDS011;9455;54.302;10.124;2024-03-23T12:15:25;9.50;;;1.80;;
18651;SDS011;9455;54.302;10.124;2024-03-23T12:17:52;20.40;;;1.53;;
18651;SDS011;9455;54.302;10.124;2024-03-23T12:20:32;7.43;;;2.00;;
18651;SDS011;9455;54.302;10.124;2024-03-23T12:23:04;8.60;;;1.83;;
18651;SDS011;9455;54.302;10.124;2024-03-23T12:25:31;8.67;;;1.40;;
18651;SDS011;9455;54.302;10.124;2024-03-23T12:27:58;10.87;;;1.53;;
18651;SDS011;9455;54.302;10.124;2024-03-23T12:30:25;6.93;;;1.57;;
18651;SDS011;9455;54.302;10.124;2024-03-23T12:32:51;5.57;;;1.30;;
18651;SDS011;9455;54.302;10.124;2024-03-23T12:35:17;4.57;;;1.40;;
18651;SDS011;9455;54.302;10.124;2024-03-23T12:37:43;2.47;;;0.90;;
18651;SDS011;9455;54.302;10.124;2024-03-23T12:40:10;1.93;;;1.07;;
18651;SDS011;9455;54.302;10.124;2024-03-23T12:42:36;7.73;;;1.00;;
18651;SDS011;9455;54.302;10.124;2024-03-23T12:45:04;2.77;;;1.00;;
18651;SDS011;9455;54.302;10.124;2024-03-23T12:47:31;2.10;;;1.07;;
18651;SDS011;9455;54.302;10.124;2024-03-23T12:49:57;2.83;;;0.97;;
18651;SDS011;9455;54.302;10.124;2024-03-23T12:52:23;6.63;;;1.57;;
18651;SDS011;9455;54.302;10.124;2024-03-23T12:54:54;8.70;;;1.23;;
18651;SDS011;9455;54.302;10.124;2024-03-23T12:57:21;13.87;;;3.20;;
18651;SDS011;9455;54.302;10.124;2024-03-23T12:59:48;4.53;;;1.50;;
18651;SDS011;9455;54.302;10.124;2024-03-23T13:02:17;8.30;;;1.70;;
18651;SDS011;9455;54.302;10.124;2024-03-23T13:04:45;8.40;;;2.40;;
18651;SDS011;9455;54.302;10.124;2024-03-23T13:07:12;13.93;;;1.27;;
18651;SDS011;9455;54.302;10.124;2024-03-23T13:09:39;5.00;;;1.53;;
18651;SDS011;9455;54.302;10.124;2024-03-23T13:12:04;12.70;;;1.43;;
18651;SDS011;9455;54.302;10.124;2024-03-23T13:14:32;7.90;;;1.50;;
18651;SDS011;9455;54.302;10.124;2024-03-23T13:16:57;6.70;;;1.30;;
18651;SDS011;9455;54.302;10.124;2024-03-23T13:19:25;8.00;;;2.13;;
18651;SDS011;9455;54.302;10.124;2024-03-23T13:21:55;12.37;;;1.60;;
18651;SDS011;9455;54.302;10.124;2024-03-23T13:24:21;5.97;;;1.20;;
18651;SDS011;9455;54.302;10.124;2024-03-23T13:26:49;8.83;;;1.47;;
18651;SDS011;9455;54.302;10.124;2024-03-23T13:29:15;10.43;;;1.10;;
18651;SDS011;9455;54.302;10.124;2024-03-23T13:31:41;7.90;;;1.93;;
18651;SDS011;9455;54.302;10.124;2024-03-23T13:34:07;7.43;;;0.97;;
18651;SDS011;9455;54.302;10.124;2024-03-23T13:36:35;10.47;;;1.87;;
18651;SDS011;9455;54.302;10.124;2024-03-23T13:39:01;7.53;;;1.10;;
18651;SDS011;9455;54.302;10.124;2024-03-23T13:41:30;2.67;;;1.10;;
18651;SDS011;9455;54.302;10.124;2024-03-23T13:43:56;4.37;;;1.30;;
18651;SDS011;9455;54.302;10.124;2024-03-23T13:46:22;5.83;;;1.77;;
18651;SDS011;9455;54.302;10.124;2024-03-23T13:48:48;12.30;;;1.80;;
18651;SDS011;9455;54.302;10.124;2024-03-23T13:51:14;10.80;;;1.40;;
18651;SDS011;9455;54.302;10.124;2024-03-23T13:53:41;17.90;;;2.03;;
18651;SDS011;9455;54.302;10.124;2024-03-23T13:56:08;11.60;;;1.33;;
18651;SDS011;9455;54.302;10.124;2024-03-23T13:58:35;7.13;;;1.20;;
18651;SDS011;9455;54.302;10.124;2024-03-23T14:01:01;6.70;;;1.10;;
18651;SDS011;9455;54.302;10.124;2024-03-23T14:03:27;4.50;;;1.60;;
18651;SDS011;9455;54.302;10.124;2024-03-23T14:05:57;5.07;;;1.43;;
18651;SDS011;9455;54.302;10.124;2024-03-23T14:08:23;5.87;;;1.27;;
18651;SDS011;9455;54.302;10.124;2024-03-23T14:10:51;6.07;;;1.63;;
18651;SDS011;9455;54.302;10.124;2024-03-23T14:13:17;10.00;;;1.30;;
18651;SDS011;9455;54.302;10.124;2024-03-23T14:15:43;9.57;;;1.60;;
18651;SDS011;9455;54.302;10.124;2024-03-23T14:18:09;5.57;;;2.00;;
18651;SDS011;9455;54.302;10.124;2024-03-23T14:20:35;15.07;;;1.73;;
18651;SDS011;9455;54.302;10.124;2024-03-23T14:23:01;8.90;;;1.70;;
18651;SDS011;9455;54.302;10.124;2024-03-23T14:25:27;11.63;;;1.70;;
18651;SDS011;9455;54.302;10.124;2024-03-23T14:27:55;13.30;;;2.10;;
18651;SDS011;9455;54.302;10.124;2024-03-23T14:30:23;8.97;;;1.27;;
18651;SDS011;9455;54.302;10.124;2024-03-23T14:32:48;8.83;;;1.70;;
18651;SDS011;9455;54.302;10.124;2024-03-23T14:35:16;2.60;;;1.67;;
18651;SDS011;9455;54.302;10.124;2024-03-23T14:37:42;7.80;;;1.20;;
18651;SDS011;9455;54.302;10.124;2024-03-23T14:40:08;11.73;;;2.17;;
18651;SDS011;9455;54.302;10.124;2024-03-23T14:42:37;6.10;;;1.50;;
18651;SDS011;9455;54.302;10.124;2024-03-23T14:45:06;7.77;;;1.60;;
18651;SDS011;9455;54.302;10.124;2024-03-23T14:47:32;7.50;;;1.87;;
18651;SDS011;9455;54.302;10.124;2024-03-23T14:49:59;3.70;;;1.83;;
18651;SDS011;9455;54.302;10.124;2024-03-23T14:52:26;9.23;;;2.20;;
18651;SDS011;9455;54.302;10.124;2024-03-23T14:54:52;4.87;;;1.70;;
18651;SDS011;9455;54.302;10.124;2024-03-23T14:57:18;13.97;;;1.60;;
18651;SDS011;9455;54.302;10.124;2024-03-23T14:59:45;6.57;;;1.60;;
18651;SDS011;9455;54.302;10.124;2024-03-23T15:02:12;11.47;;;2.17;;
18651;SDS011;9455;54.302;10.124;2024-03-23T15:04:38;7.97;;;1.77;;
18651;SDS011;9455;54.302;10.124;2024-03-23T15:07:07;11.87;;;1.97;;
18651;SDS011;9455;54.302;10.124;2024-03-23T15:09:33;17.17;;;2.17;;
18651;SDS011;9455;54.302;10.124;2024-03-23T15:11:59;7.10;;;1.67;;
18651;SDS011;9455;54.302;10.124;2024-03-23T15:14:26;16.10;;;1.97;;
18651;SDS011;9455;54.302;10.124;2024-03-23T15:16:51;30.77;;;4.50;;
18651;SDS011;9455;54.302;10.124;2024-03-23T15:19:20;4.10;;;1.30;;
18651;SDS011;9455;54.302;10.124;2024-03-23T15:21:46;5.97;;;1.17;;
18651;SDS011;9455;54.302;10.124;2024-03-23T15:24:12;17.30;;;2.80;;
18651;SDS011;9455;54.302;10.124;2024-03-23T15:26:38;8.23;;;1.77;;
18651;SDS011;9455;54.302;10.124;2024-03-23T15:29:05;8.93;;;1.90;;
18651;SDS011;9455;54.302;10.124;2024-03-23T15:31:36;5.53;;;1.33;;
18651;SDS011;9455;54.302;10.124;2024-03-23T15:34:03;9.23;;;1.30;;
18651;SDS011;9455;54.302;10.124;2024-03-23T15:36:31;6.63;;;1.77;;